sensor_id;sensor_type;location;lat;lon;timestamp;temperature;humidity
48575;DHT22;34352;51.084;3.712;2022-10-31T00:27:38;13.80;48.00
48575;DHT22;34352;51.084;3.712;2022-10-31T01:56:30;12.60;61.50
48575;DHT22;34352;51.084;3.712;2022-10-31T01:59:38;11.30;61.70
48575;DHT22;34352;51.084;3.712;2022-10-31T02:02:35;12.10;61.30
48575;DHT22;34352;51.084;3.712;2022-10-31T02:10:48;12.50;59.10
48575;DHT22;34352;51.084;3.712;2022-10-31T02:17:06;12.50;65.40
48575;DHT22;34352;51.084;3.712;2022-10-31T02:39:09;12.60;70.50
48575;DHT22;34352;51.084;3.712;2022-10-31T02:48:37;12.40;68.90
48575;DHT22;34352;51.084;3.712;2022-10-31T02:51:32;11.50;67.80
48575;DHT22;34352;51.084;3.712;2022-10-31T02:57:22;12.60;66.80
48575;DHT22;34352;51.084;3.712;2022-10-31T03:51:40;12.30;76.20
48575;DHT22;34352;51.084;3.712;2022-10-31T03:54:45;12.00;78.20
48575;DHT22;34352;51.084;3.712;2022-10-31T04:01:29;12.10;76.60
48575;DHT22;34352;51.084;3.712;2022-10-31T04:04:50;12.60;75.30
48575;DHT22;34352;51.084;3.712;2022-10-31T04:07:26;12.10;73.30
48575;DHT22;34352;51.084;3.712;2022-10-31T04:10:11;11.70;73.20
48575;DHT22;34352;51.084;3.712;2022-10-31T04:13:09;12.30;72.10
48575;DHT22;34352;51.084;3.712;2022-10-31T04:15:45;13.70;73.10
48575;DHT22;34352;51.084;3.712;2022-10-31T04:24:02;11.90;72.20
48575;DHT22;34352;51.084;3.712;2022-10-31T04:29:25;11.70;71.80
48575;DHT22;34352;51.084;3.712;2022-10-31T04:32:22;11.50;73.90
48575;DHT22;34352;51.084;3.712;2022-10-31T04:58:59;11.30;71.40
48575;DHT22;34352;51.084;3.712;2022-10-31T05:02:18;10.90;71.20
48575;DHT22;34352;51.084;3.712;2022-10-31T05:15:32;11.60;70.70
48575;DHT22;34352;51.084;3.712;2022-10-31T05:21:22;11.00;72.10
48575;DHT22;34352;51.084;3.712;2022-10-31T05:23:56;11.30;72.00
48575;DHT22;34352;51.084;3.712;2022-10-31T05:26:28;11.50;69.90
48575;DHT22;34352;51.084;3.712;2022-10-31T05:29:03;11.70;68.30
48575;DHT22;34352;51.084;3.712;2022-10-31T05:32:00;11.60;70.80
48575;DHT22;34352;51.084;3.712;2022-10-31T05:37:47;11.30;72.80
48575;DHT22;34352;51.084;3.712;2022-10-31T05:40:36;11.30;72.40
48575;DHT22;34352;51.084;3.712;2022-10-31T05:46:42;11.10;74.00
48575;DHT22;34352;51.084;3.712;2022-10-31T05:49:11;11.20;74.40
48575;DHT22;34352;51.084;3.712;2022-10-31T05:52:05;10.90;72.80
48575;DHT22;34352;51.084;3.712;2022-10-31T05:55:01;11.00;73.90
48575;DHT22;34352;51.084;3.712;2022-10-31T05:58:03;10.80;73.50
48575;DHT22;34352;51.084;3.712;2022-10-31T06:00:30;10.60;72.20
48575;DHT22;34352;51.084;3.712;2022-10-31T06:03:20;11.30;73.80
48575;DHT22;34352;51.084;3.712;2022-10-31T06:05:49;11.90;74.90
48575;DHT22;34352;51.084;3.712;2022-10-31T06:08:18;10.50;75.10
48575;DHT22;34352;51.084;3.712;2022-10-31T06:14:14;10.90;75.40
48575;DHT22;34352;51.084;3.712;2022-10-31T06:17:06;10.70;75.20
48575;DHT22;34352;51.084;3.712;2022-10-31T06:19:39;10.50;74.10
48575;DHT22;34352;51.084;3.712;2022-10-31T06:22:07;11.10;74.40
48575;DHT22;34352;51.084;3.712;2022-10-31T06:24:39;10.20;73.90
48575;DHT22;34352;51.084;3.712;2022-10-31T06:27:09;11.40;71.40
48575;DHT22;34352;51.084;3.712;2022-10-31T06:29:39;11.70;69.20
48575;DHT22;34352;51.084;3.712;2022-10-31T06:32:19;11.40;71.90
48575;DHT22;34352;51.084;3.712;2022-10-31T06:34:46;11.50;72.10
48575;DHT22;34352;51.084;3.712;2022-10-31T06:37:32;11.00;73.20
48575;DHT22;34352;51.084;3.712;2022-10-31T06:40:40;11.30;73.90
48575;DHT22;34352;51.084;3.712;2022-10-31T06:43:23;12.10;76.00
48575;DHT22;34352;51.084;3.712;2022-10-31T06:46:38;11.80;75.50
48575;DHT22;34352;51.084;3.712;2022-10-31T06:55:13;12.00;77.40
48575;DHT22;34352;51.084;3.712;2022-10-31T06:58:03;12.20;77.70
48575;DHT22;34352;51.084;3.712;2022-10-31T07:01:10;12.10;78.70
48575;DHT22;34352;51.084;3.712;2022-10-31T07:03:42;11.60;75.60
48575;DHT22;34352;51.084;3.712;2022-10-31T07:06:14;12.30;75.00
48575;DHT22;34352;51.084;3.712;2022-10-31T07:09:17;12.00;74.50
48575;DHT22;34352;51.084;3.712;2022-10-31T07:12:22;12.20;75.40
48575;DHT22;34352;51.084;3.712;2022-10-31T07:15:11;12.40;72.90
48575;DHT22;34352;51.084;3.712;2022-10-31T08:26:46;13.30;76.10
48575;DHT22;34352;51.084;3.712;2022-10-31T08:29:34;12.70;74.50
48575;DHT22;34352;51.084;3.712;2022-10-31T08:32:00;13.40;72.20
48575;DHT22;34352;51.084;3.712;2022-10-31T08:34:33;13.50;71.60
48575;DHT22;34352;51.084;3.712;2022-10-31T08:36:59;12.30;70.00
48575;DHT22;34352;51.084;3.712;2022-10-31T08:39:27;14.00;69.20
48575;DHT22;34352;51.084;3.712;2022-10-31T08:41:55;13.90;65.20
48575;DHT22;34352;51.084;3.712;2022-10-31T08:44:23;13.80;66.30
48575;DHT22;34352;51.084;3.712;2022-10-31T08:46:49;13.70;64.60
48575;DHT22;34352;51.084;3.712;2022-10-31T08:49:15;12.90;63.90
48575;DHT22;34352;51.084;3.712;2022-10-31T08:51:41;14.10;62.40
48575;DHT22;34352;51.084;3.712;2022-10-31T08:54:08;14.20;60.10
48575;DHT22;34352;51.084;3.712;2022-10-31T08:56:35;14.20;58.60
48575;DHT22;34352;51.084;3.712;2022-10-31T08:59:01;14.20;58.00
48575;DHT22;34352;51.084;3.712;2022-10-31T09:01:26;15.50;58.00
48575;DHT22;34352;51.084;3.712;2022-10-31T09:04:03;14.40;55.90
48575;DHT22;34352;51.084;3.712;2022-10-31T09:06:32;14.00;57.40
48575;DHT22;34352;51.084;3.712;2022-10-31T09:08:58;14.60;59.50
48575;DHT22;34352;51.084;3.712;2022-10-31T09:11:23;14.20;54.00
48575;DHT22;34352;51.084;3.712;2022-10-31T09:13:52;14.70;55.60
48575;DHT22;34352;51.084;3.712;2022-10-31T09:16:18;14.80;53.10
48575;DHT22;34352;51.084;3.712;2022-10-31T09:18:43;15.90;52.10
48575;DHT22;34352;51.084;3.712;2022-10-31T09:21:09;14.00;48.80
48575;DHT22;34352;51.084;3.712;2022-10-31T09:23:35;14.70;50.60
48575;DHT22;34352;51.084;3.712;2022-10-31T09:26:01;14.70;49.10
48575;DHT22;34352;51.084;3.712;2022-10-31T09:28:28;14.80;49.70
48575;DHT22;34352;51.084;3.712;2022-10-31T09:30:54;14.70;52.20
48575;DHT22;34352;51.084;3.712;2022-10-31T09:33:27;14.60;49.60
48575;DHT22;34352;51.084;3.712;2022-10-31T09:35:53;14.80;49.90
48575;DHT22;34352;51.084;3.712;2022-10-31T09:38:20;15.80;51.40
48575;DHT22;34352;51.084;3.712;2022-10-31T09:40:55;14.70;54.50
48575;DHT22;34352;51.084;3.712;2022-10-31T09:43:43;14.80;56.90
48575;DHT22;34352;51.084;3.712;2022-10-31T09:52:18;15.10;54.20
48575;DHT22;34352;51.084;3.712;2022-10-31T09:55:04;15.20;53.40
48575;DHT22;34352;51.084;3.712;2022-10-31T09:57:34;15.20;53.40
48575;DHT22;34352;51.084;3.712;2022-10-31T10:00:04;15.40;52.90
48575;DHT22;34352;51.084;3.712;2022-10-31T10:02:39;15.40;49.50
48575;DHT22;34352;51.084;3.712;2022-10-31T10:05:13;15.80;41.30
48575;DHT22;34352;51.084;3.712;2022-10-31T10:10:54;15.80;38.40
48575;DHT22;34352;51.084;3.712;2022-10-31T10:16:26;16.00;26.70
48575;DHT22;34352;51.084;3.712;2022-10-31T10:19:12;16.10;25.80
48575;DHT22;34352;51.084;3.712;2022-10-31T10:33:40;16.50;18.60
48575;DHT22;34352;51.084;3.712;2022-10-31T10:36:19;16.80;20.40
48575;DHT22;34352;51.084;3.712;2022-10-31T10:41:55;18.10;1.00
48575;DHT22;34352;51.084;3.712;2022-10-31T10:44:46;18.70;1.00
48575;DHT22;34352;51.084;3.712;2022-10-31T10:47:54;19.80;1.00
48575;DHT22;34352;51.084;3.712;2022-10-31T10:50:35;19.70;1.00
48575;DHT22;34352;51.084;3.712;2022-10-31T10:56:11;19.50;99.90
48575;DHT22;34352;51.084;3.712;2022-10-31T10:58:43;19.30;99.90
48575;DHT22;34352;51.084;3.712;2022-10-31T11:01:25;18.50;1.00
48575;DHT22;34352;51.084;3.712;2022-10-31T11:03:51;18.90;1.00
48575;DHT22;34352;51.084;3.712;2022-10-31T11:06:18;18.50;1.00
48575;DHT22;34352;51.084;3.712;2022-10-31T11:08:48;18.30;1.00
48575;DHT22;34352;51.084;3.712;2022-10-31T11:11:24;18.10;1.00
48575;DHT22;34352;51.084;3.712;2022-10-31T11:14:03;18.00;1.00
48575;DHT22;34352;51.084;3.712;2022-10-31T11:16:36;17.80;1.00
48575;DHT22;34352;51.084;3.712;2022-10-31T11:19:29;17.70;1.00
48575;DHT22;34352;51.084;3.712;2022-10-31T11:22:13;17.60;1.00
48575;DHT22;34352;51.084;3.712;2022-10-31T11:24:44;17.70;1.00
48575;DHT22;34352;51.084;3.712;2022-10-31T11:27:32;17.60;1.00
48575;DHT22;34352;51.084;3.712;2022-10-31T11:30:06;17.50;1.00
48575;DHT22;34352;51.084;3.712;2022-10-31T11:32:31;17.40;1.00
48575;DHT22;34352;51.084;3.712;2022-10-31T11:35:00;17.70;1.00
48575;DHT22;34352;51.084;3.712;2022-10-31T11:37:32;17.70;1.00
48575;DHT22;34352;51.084;3.712;2022-10-31T11:40:05;17.80;1.00
48575;DHT22;34352;51.084;3.712;2022-10-31T11:42:39;17.80;1.00
48575;DHT22;34352;51.084;3.712;2022-10-31T11:47:43;17.90;1.00
48575;DHT22;34352;51.084;3.712;2022-10-31T11:50:38;18.40;1.00
48575;DHT22;34352;51.084;3.712;2022-10-31T11:53:17;18.00;1.00
48575;DHT22;34352;51.084;3.712;2022-10-31T11:55:45;18.00;1.00
48575;DHT22;34352;51.084;3.712;2022-10-31T11:58:25;18.10;1.00
48575;DHT22;34352;51.084;3.712;2022-10-31T12:00:54;18.10;1.00
48575;DHT22;34352;51.084;3.712;2022-10-31T12:06:12;17.90;1.00
48575;DHT22;34352;51.084;3.712;2022-10-31T12:08:40;17.70;1.00
48575;DHT22;34352;51.084;3.712;2022-10-31T12:11:36;17.90;1.00
48575;DHT22;34352;51.084;3.712;2022-10-31T12:14:22;17.80;1.00
48575;DHT22;34352;51.084;3.712;2022-10-31T12:16:55;17.70;1.00
48575;DHT22;34352;51.084;3.712;2022-10-31T12:19:26;17.80;1.00
48575;DHT22;34352;51.084;3.712;2022-10-31T12:22:12;18.20;1.00
48575;DHT22;34352;51.084;3.712;2022-10-31T12:25:00;17.90;1.00
48575;DHT22;34352;51.084;3.712;2022-10-31T12:33:40;17.90;1.00
48575;DHT22;34352;51.084;3.712;2022-10-31T12:36:45;18.00;1.00
48575;DHT22;34352;51.084;3.712;2022-10-31T12:39:25;17.90;1.00
48575;DHT22;34352;51.084;3.712;2022-10-31T12:42:02;17.70;1.00
48575;DHT22;34352;51.084;3.712;2022-10-31T12:47:39;17.80;1.00
48575;DHT22;34352;51.084;3.712;2022-10-31T13:05:53;17.50;1.00
48575;DHT22;34352;51.084;3.712;2022-10-31T13:13:47;16.20;1.00
48575;DHT22;34352;51.084;3.712;2022-10-31T13:16:18;17.60;1.00
48575;DHT22;34352;51.084;3.712;2022-10-31T13:27:58;18.10;1.00
48575;DHT22;34352;51.084;3.712;2022-10-31T13:33:02;19.10;1.00
48575;DHT22;34352;51.084;3.712;2022-10-31T13:41:01;20.60;1.00
48575;DHT22;34352;51.084;3.712;2022-10-31T13:46:35;20.90;1.00
48575;DHT22;34352;51.084;3.712;2022-10-31T13:49:01;21.10;1.00
48575;DHT22;34352;51.084;3.712;2022-10-31T13:51:33;21.10;1.00
48575;DHT22;34352;51.084;3.712;2022-10-31T13:54:23;20.80;1.00
48575;DHT22;34352;51.084;3.712;2022-10-31T13:56:52;20.40;1.00
48575;DHT22;34352;51.084;3.712;2022-10-31T13:59:22;20.40;1.00
48575;DHT22;34352;51.084;3.712;2022-10-31T14:15:29;21.50;1.00
48575;DHT22;34352;51.084;3.712;2022-10-31T14:18:07;21.10;1.00
48575;DHT22;34352;51.084;3.712;2022-10-31T14:20:48;20.10;1.00
48575;DHT22;34352;51.084;3.712;2022-10-31T14:28:44;17.90;1.00
48575;DHT22;34352;51.084;3.712;2022-10-31T14:34:00;18.80;1.00
48575;DHT22;34352;51.084;3.712;2022-10-31T14:36:39;18.30;1.00
48575;DHT22;34352;51.084;3.712;2022-10-31T14:52:01;18.30;1.00
48575;DHT22;34352;51.084;3.712;2022-10-31T14:57:19;18.60;1.00
48575;DHT22;34352;51.084;3.712;2022-10-31T14:59:47;18.30;1.00
48575;DHT22;34352;51.084;3.712;2022-10-31T15:04:50;17.80;1.00
48575;DHT22;34352;51.084;3.712;2022-10-31T15:07:18;19.70;1.00
48575;DHT22;34352;51.084;3.712;2022-10-31T15:09:45;19.50;1.00
48575;DHT22;34352;51.084;3.712;2022-10-31T15:12:27;19.30;1.00
48575;DHT22;34352;51.084;3.712;2022-10-31T15:14:53;19.10;1.00
48575;DHT22;34352;51.084;3.712;2022-10-31T15:17:30;18.70;1.00
48575;DHT22;34352;51.084;3.712;2022-10-31T15:19:56;18.50;1.00
48575;DHT22;34352;51.084;3.712;2022-10-31T15:22:23;18.30;1.00
48575;DHT22;34352;51.084;3.712;2022-10-31T15:24:49;18.20;1.00
48575;DHT22;34352;51.084;3.712;2022-10-31T15:27:21;18.20;1.00
48575;DHT22;34352;51.084;3.712;2022-10-31T15:29:48;18.20;1.00
48575;DHT22;34352;51.084;3.712;2022-10-31T15:32:19;18.20;1.00
48575;DHT22;34352;51.084;3.712;2022-10-31T15:37:49;19.30;1.00
48575;DHT22;34352;51.084;3.712;2022-10-31T15:40:16;17.90;1.00
48575;DHT22;34352;51.084;3.712;2022-10-31T15:42:50;18.00;1.00
48575;DHT22;34352;51.084;3.712;2022-10-31T15:45:18;17.80;1.00
48575;DHT22;34352;51.084;3.712;2022-10-31T15:47:54;18.10;1.00
48575;DHT22;34352;51.084;3.712;2022-10-31T15:50:35;18.90;1.00
48575;DHT22;34352;51.084;3.712;2022-10-31T15:53:02;18.00;1.00
48575;DHT22;34352;51.084;3.712;2022-10-31T15:55:31;17.80;1.00
48575;DHT22;34352;51.084;3.712;2022-10-31T15:58:03;17.90;3.50
48575;DHT22;34352;51.084;3.712;2022-10-31T16:00:32;17.80;1.00
48575;DHT22;34352;51.084;3.712;2022-10-31T16:05:34;17.60;12.90
48575;DHT22;34352;51.084;3.712;2022-10-31T16:08:00;17.50;19.20
48575;DHT22;34352;51.084;3.712;2022-10-31T16:10:27;16.70;17.40
48575;DHT22;34352;51.084;3.712;2022-10-31T16:12:57;17.60;15.20
48575;DHT22;34352;51.084;3.712;2022-10-31T16:15:23;16.60;6.00
48575;DHT22;34352;51.084;3.712;2022-10-31T16:17:49;17.60;9.50
48575;DHT22;34352;51.084;3.712;2022-10-31T16:20:20;17.00;18.00
48575;DHT22;34352;51.084;3.712;2022-10-31T16:22:49;16.90;19.20
48575;DHT22;34352;51.084;3.712;2022-10-31T16:25:16;17.50;13.70
48575;DHT22;34352;51.084;3.712;2022-10-31T16:27:48;17.30;17.30
48575;DHT22;34352;51.084;3.712;2022-10-31T16:32:59;17.20;21.60
48575;DHT22;34352;51.084;3.712;2022-10-31T16:35:33;17.30;24.00
48575;DHT22;34352;51.084;3.712;2022-10-31T16:37:59;17.10;28.30
48575;DHT22;34352;51.084;3.712;2022-10-31T16:40:25;17.20;23.30
48575;DHT22;34352;51.084;3.712;2022-10-31T16:42:50;17.10;27.30
48575;DHT22;34352;51.084;3.712;2022-10-31T16:45:18;17.00;33.40
48575;DHT22;34352;51.084;3.712;2022-10-31T16:47:44;17.00;33.40
48575;DHT22;34352;51.084;3.712;2022-10-31T16:50:17;17.00;33.00
48575;DHT22;34352;51.084;3.712;2022-10-31T16:52:43;17.00;31.00
48575;DHT22;34352;51.084;3.712;2022-10-31T16:55:10;16.90;34.10
48575;DHT22;34352;51.084;3.712;2022-10-31T16:57:36;16.90;34.10
48575;DHT22;34352;51.084;3.712;2022-10-31T17:00:03;16.80;36.50
48575;DHT22;34352;51.084;3.712;2022-10-31T17:05:21;16.80;34.50
48575;DHT22;34352;51.084;3.712;2022-10-31T17:07:47;16.10;39.00
48575;DHT22;34352;51.084;3.712;2022-10-31T17:13:08;16.90;32.40
48575;DHT22;34352;51.084;3.712;2022-10-31T17:18:39;16.50;41.30
48575;DHT22;34352;51.084;3.712;2022-10-31T17:21:04;16.70;38.90
48575;DHT22;34352;51.084;3.712;2022-10-31T17:23:31;16.60;39.20
48575;DHT22;34352;51.084;3.712;2022-10-31T17:26:02;16.60;39.70
48575;DHT22;34352;51.084;3.712;2022-10-31T17:28:29;16.60;36.90
48575;DHT22;34352;51.084;3.712;2022-10-31T17:30:58;16.40;37.60
48575;DHT22;34352;51.084;3.712;2022-10-31T17:33:23;16.60;30.40
48575;DHT22;34352;51.084;3.712;2022-10-31T17:36:06;16.60;32.80
48575;DHT22;34352;51.084;3.712;2022-10-31T17:38:32;16.60;34.00
48575;DHT22;34352;51.084;3.712;2022-10-31T17:41:04;16.60;33.00
48575;DHT22;34352;51.084;3.712;2022-10-31T17:43:40;15.90;34.70
48575;DHT22;34352;51.084;3.712;2022-10-31T17:46:05;16.60;30.90
48575;DHT22;34352;51.084;3.712;2022-10-31T17:48:32;16.70;29.70
48575;DHT22;34352;51.084;3.712;2022-10-31T17:51:01;16.60;32.70
48575;DHT22;34352;51.084;3.712;2022-10-31T17:53:30;16.60;33.40
48575;DHT22;34352;51.084;3.712;2022-10-31T17:56:00;16.60;30.10
48575;DHT22;34352;51.084;3.712;2022-10-31T17:58:27;16.60;32.20
48575;DHT22;34352;51.084;3.712;2022-10-31T18:00:53;16.50;28.80
48575;DHT22;34352;51.084;3.712;2022-10-31T18:03:19;16.50;30.90
48575;DHT22;34352;51.084;3.712;2022-10-31T18:05:54;16.50;29.60
48575;DHT22;34352;51.084;3.712;2022-10-31T18:08:27;16.50;27.50
48575;DHT22;34352;51.084;3.712;2022-10-31T18:10:53;16.50;29.70
48575;DHT22;34352;51.084;3.712;2022-10-31T18:13:19;17.50;25.60
48575;DHT22;34352;51.084;3.712;2022-10-31T18:15:45;16.50;24.30
48575;DHT22;34352;51.084;3.712;2022-10-31T18:18:13;16.50;24.00
48575;DHT22;34352;51.084;3.712;2022-10-31T18:20:39;16.20;24.70
48575;DHT22;34352;51.084;3.712;2022-10-31T18:23:05;16.40;19.30
48575;DHT22;34352;51.084;3.712;2022-10-31T18:25:31;16.40;20.10
48575;DHT22;34352;51.084;3.712;2022-10-31T18:27:56;16.40;17.30
48575;DHT22;34352;51.084;3.712;2022-10-31T18:30:22;16.30;18.40
48575;DHT22;34352;51.084;3.712;2022-10-31T18:32:48;16.40;10.70
48575;DHT22;34352;51.084;3.712;2022-10-31T18:35:14;17.60;10.00
48575;DHT22;34352;51.084;3.712;2022-10-31T18:37:39;16.40;3.90
48575;DHT22;34352;51.084;3.712;2022-10-31T18:40:05;16.50;1.00
48575;DHT22;34352;51.084;3.712;2022-10-31T18:42:31;16.60;1.00
48575;DHT22;34352;51.084;3.712;2022-10-31T18:44:56;16.80;1.00
48575;DHT22;34352;51.084;3.712;2022-10-31T18:47:22;16.80;1.00
48575;DHT22;34352;51.084;3.712;2022-10-31T18:49:48;16.70;1.00
48575;DHT22;34352;51.084;3.712;2022-10-31T18:52:14;16.70;1.00
48575;DHT22;34352;51.084;3.712;2022-10-31T18:54:40;16.70;1.00
48575;DHT22;34352;51.084;3.712;2022-10-31T18:57:05;16.90;1.00
48575;DHT22;34352;51.084;3.712;2022-10-31T18:59:31;16.80;1.00
48575;DHT22;34352;51.084;3.712;2022-10-31T19:01:56;16.70;1.00
48575;DHT22;34352;51.084;3.712;2022-10-31T19:04:22;16.90;1.00
48575;DHT22;34352;51.084;3.712;2022-10-31T19:06:48;17.10;1.00
48575;DHT22;34352;51.084;3.712;2022-10-31T19:09:13;17.00;1.00
48575;DHT22;34352;51.084;3.712;2022-10-31T19:11:39;17.00;1.00
48575;DHT22;34352;51.084;3.712;2022-10-31T19:14:05;17.00;1.00
48575;DHT22;34352;51.084;3.712;2022-10-31T19:16:32;16.90;1.00
48575;DHT22;34352;51.084;3.712;2022-10-31T19:18:58;17.10;1.00
48575;DHT22;34352;51.084;3.712;2022-10-31T19:21:24;17.10;1.00
48575;DHT22;34352;51.084;3.712;2022-10-31T19:23:50;18.20;1.00
48575;DHT22;34352;51.084;3.712;2022-10-31T19:26:16;17.00;1.00
48575;DHT22;34352;51.084;3.712;2022-10-31T19:28:42;17.20;1.00
48575;DHT22;34352;51.084;3.712;2022-10-31T19:31:07;17.00;1.00
48575;DHT22;34352;51.084;3.712;2022-10-31T19:33:33;17.00;1.00
48575;DHT22;34352;51.084;3.712;2022-10-31T19:36:13;17.00;1.00
48575;DHT22;34352;51.084;3.712;2022-10-31T19:38:40;17.00;1.00
48575;DHT22;34352;51.084;3.712;2022-10-31T19:41:08;17.00;1.00
48575;DHT22;34352;51.084;3.712;2022-10-31T19:43:33;16.90;1.00
48575;DHT22;34352;51.084;3.712;2022-10-31T19:46:07;17.00;1.00
48575;DHT22;34352;51.084;3.712;2022-10-31T19:48:35;17.20;1.00
48575;DHT22;34352;51.084;3.712;2022-10-31T19:51:02;17.10;1.00
48575;DHT22;34352;51.084;3.712;2022-10-31T19:53:29;17.10;1.00
48575;DHT22;34352;51.084;3.712;2022-10-31T19:56:00;17.00;1.00
48575;DHT22;34352;51.084;3.712;2022-10-31T19:58:26;17.00;1.00
48575;DHT22;34352;51.084;3.712;2022-10-31T20:00:51;16.90;1.00
48575;DHT22;34352;51.084;3.712;2022-10-31T20:03:17;17.10;1.00
48575;DHT22;34352;51.084;3.712;2022-10-31T20:05:43;17.20;1.00
48575;DHT22;34352;51.084;3.712;2022-10-31T20:08:13;17.10;1.00
48575;DHT22;34352;51.084;3.712;2022-10-31T20:10:39;17.20;1.00
48575;DHT22;34352;51.084;3.712;2022-10-31T20:13:04;17.20;1.00
48575;DHT22;34352;51.084;3.712;2022-10-31T20:15:32;17.30;1.00
48575;DHT22;34352;51.084;3.712;2022-10-31T20:17:57;17.30;1.00
48575;DHT22;34352;51.084;3.712;2022-10-31T20:20:23;17.20;1.00
48575;DHT22;34352;51.084;3.712;2022-10-31T20:22:49;17.20;1.00
48575;DHT22;34352;51.084;3.712;2022-10-31T20:25:16;17.10;1.00
48575;DHT22;34352;51.084;3.712;2022-10-31T20:27:43;17.10;1.00
48575;DHT22;34352;51.084;3.712;2022-10-31T20:30:09;17.00;1.00
48575;DHT22;34352;51.084;3.712;2022-10-31T20:32:34;16.90;1.00
48575;DHT22;34352;51.084;3.712;2022-10-31T20:35:00;16.90;1.00
48575;DHT22;34352;51.084;3.712;2022-10-31T20:37:26;16.80;1.00
48575;DHT22;34352;51.084;3.712;2022-10-31T20:39:51;16.80;1.00
48575;DHT22;34352;51.084;3.712;2022-10-31T20:42:17;16.10;1.00
48575;DHT22;34352;51.084;3.712;2022-10-31T20:44:45;16.80;1.00
48575;DHT22;34352;51.084;3.712;2022-10-31T20:47:11;16.40;1.20
48575;DHT22;34352;51.084;3.712;2022-10-31T20:52:23;16.80;2.00
48575;DHT22;34352;51.084;3.712;2022-10-31T20:54:48;16.90;1.00
48575;DHT22;34352;51.084;3.712;2022-10-31T20:57:14;17.00;1.00
48575;DHT22;34352;51.084;3.712;2022-10-31T20:59:57;17.00;1.00
48575;DHT22;34352;51.084;3.712;2022-10-31T21:02:30;16.90;1.00
48575;DHT22;34352;51.084;3.712;2022-10-31T21:04:56;17.00;1.00
48575;DHT22;34352;51.084;3.712;2022-10-31T21:07:22;17.00;1.00
48575;DHT22;34352;51.084;3.712;2022-10-31T21:09:48;17.10;1.00
48575;DHT22;34352;51.084;3.712;2022-10-31T21:12:13;17.10;1.00
48575;DHT22;34352;51.084;3.712;2022-10-31T21:14:39;17.20;1.00
48575;DHT22;34352;51.084;3.712;2022-10-31T21:17:04;17.20;1.00
48575;DHT22;34352;51.084;3.712;2022-10-31T21:19:31;17.20;1.00
48575;DHT22;34352;51.084;3.712;2022-10-31T21:21:57;18.30;1.00
48575;DHT22;34352;51.084;3.712;2022-10-31T21:24:23;17.20;1.00
48575;DHT22;34352;51.084;3.712;2022-10-31T21:26:52;17.20;1.00
48575;DHT22;34352;51.084;3.712;2022-10-31T21:29:18;17.10;1.00
48575;DHT22;34352;51.084;3.712;2022-10-31T21:31:44;17.20;1.00
48575;DHT22;34352;51.084;3.712;2022-10-31T21:34:13;17.10;1.60
48575;DHT22;34352;51.084;3.712;2022-10-31T21:36:39;17.10;1.30
48575;DHT22;34352;51.084;3.712;2022-10-31T21:39:04;16.90;17.90
48575;DHT22;34352;51.084;3.712;2022-10-31T21:41:30;17.20;19.70
48575;DHT22;34352;51.084;3.712;2022-10-31T21:43:57;17.30;24.20
48575;DHT22;34352;51.084;3.712;2022-10-31T21:46:23;16.80;24.30
48575;DHT22;34352;51.084;3.712;2022-10-31T21:48:49;16.90;22.90
48575;DHT22;34352;51.084;3.712;2022-10-31T21:51:18;16.90;23.10
48575;DHT22;34352;51.084;3.712;2022-10-31T21:53:44;16.90;22.50
48575;DHT22;34352;51.084;3.712;2022-10-31T21:56:28;17.40;18.00
48575;DHT22;34352;51.084;3.712;2022-10-31T21:58:54;17.00;18.40
48575;DHT22;34352;51.084;3.712;2022-10-31T22:01:20;17.00;17.90
48575;DHT22;34352;51.084;3.712;2022-10-31T22:03:46;17.10;20.10
48575;DHT22;34352;51.084;3.712;2022-10-31T22:06:13;18.40;24.60
48575;DHT22;34352;51.084;3.712;2022-10-31T22:08:39;17.00;29.30
48575;DHT22;34352;51.084;3.712;2022-10-31T22:11:06;17.00;30.10
48575;DHT22;34352;51.084;3.712;2022-10-31T22:13:32;16.90;40.40
48575;DHT22;34352;51.084;3.712;2022-10-31T22:16:05;16.90;46.60
48575;DHT22;34352;51.084;3.712;2022-10-31T22:18:31;16.80;51.70
48575;DHT22;34352;51.084;3.712;2022-10-31T22:21:00;16.80;51.20
48575;DHT22;34352;51.084;3.712;2022-10-31T22:23:26;16.70;53.60
48575;DHT22;34352;51.084;3.712;2022-10-31T22:25:51;16.90;57.30
48575;DHT22;34352;51.084;3.712;2022-10-31T22:28:17;17.30;60.30
48575;DHT22;34352;51.084;3.712;2022-10-31T22:30:42;16.60;60.60
48575;DHT22;34352;51.084;3.712;2022-10-31T22:33:08;16.60;60.50
48575;DHT22;34352;51.084;3.712;2022-10-31T22:35:34;16.60;60.00
48575;DHT22;34352;51.084;3.712;2022-10-31T22:37:59;16.70;57.80
48575;DHT22;34352;51.084;3.712;2022-10-31T22:40:27;16.70;58.10
48575;DHT22;34352;51.084;3.712;2022-10-31T22:42:52;16.60;60.80
48575;DHT22;34352;51.084;3.712;2022-10-31T22:45:20;16.70;60.10
48575;DHT22;34352;51.084;3.712;2022-10-31T22:47:54;16.70;58.50
48575;DHT22;34352;51.084;3.712;2022-10-31T22:50:20;16.70;59.00
48575;DHT22;34352;51.084;3.712;2022-10-31T22:52:45;16.80;59.10
48575;DHT22;34352;51.084;3.712;2022-10-31T22:55:11;16.70;58.20
48575;DHT22;34352;51.084;3.712;2022-10-31T22:57:39;16.80;54.70
48575;DHT22;34352;51.084;3.712;2022-10-31T23:00:05;16.80;54.50
48575;DHT22;34352;51.084;3.712;2022-10-31T23:02:33;16.90;51.50
48575;DHT22;34352;51.084;3.712;2022-10-31T23:04:58;16.80;52.20
48575;DHT22;34352;51.084;3.712;2022-10-31T23:07:24;16.80;52.90
48575;DHT22;34352;51.084;3.712;2022-10-31T23:09:51;16.80;52.40
48575;DHT22;34352;51.084;3.712;2022-10-31T23:12:16;16.80;52.00
48575;DHT22;34352;51.084;3.712;2022-10-31T23:15:00;16.80;52.50
48575;DHT22;34352;51.084;3.712;2022-10-31T23:17:26;16.80;53.90
48575;DHT22;34352;51.084;3.712;2022-10-31T23:19:52;16.80;54.90
48575;DHT22;34352;51.084;3.712;2022-10-31T23:22:17;16.80;53.50
48575;DHT22;34352;51.084;3.712;2022-10-31T23:24:44;16.80;52.80
48575;DHT22;34352;51.084;3.712;2022-10-31T23:27:12;16.90;51.10
48575;DHT22;34352;51.084;3.712;2022-10-31T23:32:07;16.90;48.70
48575;DHT22;34352;51.084;3.712;2022-10-31T23:34:33;17.00;49.60
48575;DHT22;34352;51.084;3.712;2022-10-31T23:36:58;16.90;50.50
48575;DHT22;34352;51.084;3.712;2022-10-31T23:39:24;16.90;50.20
48575;DHT22;34352;51.084;3.712;2022-10-31T23:41:49;16.90;50.40
48575;DHT22;34352;51.084;3.712;2022-10-31T23:44:15;16.90;50.60
48575;DHT22;34352;51.084;3.712;2022-10-31T23:46:41;16.90;51.10
48575;DHT22;34352;51.084;3.712;2022-10-31T23:49:06;16.90;50.00
48575;DHT22;34352;51.084;3.712;2022-10-31T23:51:32;16.90;49.90
48575;DHT22;34352;51.084;3.712;2022-10-31T23:53:58;16.90;50.50
48575;DHT22;34352;51.084;3.712;2022-10-31T23:56:23;16.90;48.40
48575;DHT22;34352;51.084;3.712;2022-10-31T23:58:49;17.00;47.20
